<?xml version="1.0" encoding="UTF-8" standalone="no" ?>
<gpx xmlns="http://www.topografix.com/GPX/1/1" xmlns:xsi="http://www.w3.org/2001/XMLSchema-instance" xsi:schemaLocation="http://www.topografix.com/GPX/1/1 http://www.topografix.com/GPX/1/1/gpx.xsd" version="1.1" creator="VisuGPX - https://www.visugpx.com">
  <metadata>
    <name>Blis et Born Boucle Sud 24km</name>
  </metadata>
  <trk>
    <name><![CDATA[Boucle Sud 11km]]></name>
    <extensions>
      <line xmlns="http://www.topografix.com/GPX/gpx_style/0/2">
        <color>ff1900</color>
        <width>4</width>
      </line>
    </extensions>
    <trkseg>
      <trkpt lat="45.18185" lon="0.9078">
        <ele>210.6</ele>
      </trkpt>
      <trkpt lat="45.18185" lon="0.9078">
        <ele>210.6</ele>
      </trkpt>
      <trkpt lat="45.18185" lon="0.9078">
        <ele>210.6</ele>
      </trkpt>
      <trkpt lat="45.18185" lon="0.9078">
        <ele>210.6</ele>
      </trkpt>
      <trkpt lat="45.18185" lon="0.9078">
        <ele>210.6</ele>
      </trkpt>
      <trkpt lat="45.18189" lon="0.90763">
        <ele>210.5</ele>
      </trkpt>
      <trkpt lat="45.18182" lon="0.90758">
        <ele>210.6</ele>
      </trkpt>
      <trkpt lat="45.18134" lon="0.90743">
        <ele>207.8113</ele>
        <time>2011-02-17T08:00:57Z</time>
      </trkpt>
      <trkpt lat="45.18078" lon="0.90772">
        <ele>208.7</ele>
      </trkpt>
      <trkpt lat="45.1806" lon="0.90732">
        <ele>210</ele>
      </trkpt>
      <trkpt lat="45.18033" lon="0.90689">
        <ele>209.8595</ele>
        <time>2011-02-17T08:03:10Z</time>
      </trkpt>
      <trkpt lat="45.18015" lon="0.90639">
        <ele>210.5625</ele>
        <time>2011-02-17T08:03:49Z</time>
      </trkpt>
      <trkpt lat="45.18003" lon="0.9063">
        <ele>210.7367</ele>
        <time>2011-02-17T08:04:02Z</time>
      </trkpt>
      <trkpt lat="45.17952" lon="0.9063">
        <ele>208.974</ele>
        <time>2011-02-17T08:04:48Z</time>
      </trkpt>
      <trkpt lat="45.17934" lon="0.90624">
        <ele>208.9072</ele>
        <time>2011-02-17T08:05:05Z</time>
      </trkpt>
      <trkpt lat="45.17931" lon="0.90616">
        <ele>209.1003</ele>
        <time>2011-02-17T08:05:12Z</time>
      </trkpt>
      <trkpt lat="45.17921" lon="0.9059">
        <ele>209.7</ele>
      </trkpt>
      <trkpt lat="45.17921" lon="0.90568">
        <ele>209.8541</ele>
        <time>2011-02-17T08:05:47Z</time>
      </trkpt>
      <trkpt lat="45.17915" lon="0.90536">
        <ele>209.6356</ele>
        <time>2011-02-17T08:06:09Z</time>
      </trkpt>
      <trkpt lat="45.17913" lon="0.90508">
        <ele>209.196</ele>
        <time>2011-02-17T08:06:27Z</time>
      </trkpt>
      <trkpt lat="45.17911" lon="0.9048">
        <ele>208.4379</ele>
        <time>2011-02-17T08:06:44Z</time>
      </trkpt>
      <trkpt lat="45.17911" lon="0.90453">
        <ele>207.4453</ele>
        <time>2011-02-17T08:07:01Z</time>
      </trkpt>
      <trkpt lat="45.17821" lon="0.90442">
        <ele>207.7</ele>
      </trkpt>
      <trkpt lat="45.17745" lon="0.90372">
        <ele>208.6</ele>
      </trkpt>
      <trkpt lat="45.17676" lon="0.90299">
        <ele>208.8</ele>
      </trkpt>
      <trkpt lat="45.17602" lon="0.90205">
        <ele>211.8</ele>
      </trkpt>
      <trkpt lat="45.17565" lon="0.901">
        <ele>211.7</ele>
      </trkpt>
      <trkpt lat="45.17548" lon="0.89975">
        <ele>209.2</ele>
      </trkpt>
      <trkpt lat="45.17534" lon="0.89842">
        <ele>206.3</ele>
      </trkpt>
      <trkpt lat="45.17551" lon="0.89748">
        <ele>203.2</ele>
      </trkpt>
      <trkpt lat="45.1761" lon="0.89699">
        <ele>206.1</ele>
      </trkpt>
      <trkpt lat="45.17634" lon="0.89727">
        <ele>206.4</ele>
      </trkpt>
      <trkpt lat="45.17664" lon="0.89797">
        <ele>208.1</ele>
      </trkpt>
      <trkpt lat="45.17696" lon="0.89849">
        <ele>208.6</ele>
      </trkpt>
      <trkpt lat="45.17747" lon="0.89867">
        <ele>207.8</ele>
      </trkpt>
      <trkpt lat="45.17812" lon="0.89843">
        <ele>192.6072</ele>
        <time>2011-02-17T08:14:29Z</time>
      </trkpt>
      <trkpt lat="45.17814" lon="0.89811">
        <ele>191.056</ele>
        <time>2011-02-17T08:14:49Z</time>
      </trkpt>
      <trkpt lat="45.17812" lon="0.89779">
        <ele>189.7308</ele>
        <time>2011-02-17T08:15:10Z</time>
      </trkpt>
      <trkpt lat="45.17808" lon="0.89749">
        <ele>188.5226</ele>
        <time>2011-02-17T08:15:29Z</time>
      </trkpt>
      <trkpt lat="45.17803" lon="0.89721">
        <ele>187.3056</ele>
        <time>2011-02-17T08:15:47Z</time>
      </trkpt>
      <trkpt lat="45.17788" lon="0.89577">
        <ele>178.6095</ele>
        <time>2011-02-17T08:17:27Z</time>
      </trkpt>
      <trkpt lat="45.17784" lon="0.89534">
        <ele>176.8</ele>
      </trkpt>
      <trkpt lat="45.17767" lon="0.89462">
        <ele>172.3</ele>
      </trkpt>
      <trkpt lat="45.17773" lon="0.89439">
        <ele>172</ele>
      </trkpt>
      <trkpt lat="45.17782" lon="0.89417">
        <ele>171.2</ele>
      </trkpt>
      <trkpt lat="45.17798" lon="0.89394">
        <ele>168</ele>
      </trkpt>
      <trkpt lat="45.17816" lon="0.89361">
        <ele>166.2</ele>
      </trkpt>
      <trkpt lat="45.17821" lon="0.89333">
        <ele>162.3</ele>
      </trkpt>
      <trkpt lat="45.17824" lon="0.8931">
        <ele>162.6</ele>
      </trkpt>
      <trkpt lat="45.17822" lon="0.89279">
        <ele>161.6</ele>
      </trkpt>
      <trkpt lat="45.17827" lon="0.89251">
        <ele>159.1</ele>
      </trkpt>
      <trkpt lat="45.17849" lon="0.89203">
        <ele>149.8</ele>
      </trkpt>
      <trkpt lat="45.17849" lon="0.89193">
        <ele>149</ele>
      </trkpt>
      <trkpt lat="45.17847" lon="0.8918">
        <ele>149.4</ele>
      </trkpt>
      <trkpt lat="45.17839" lon="0.89174">
        <ele>150</ele>
      </trkpt>
      <trkpt lat="45.17829" lon="0.8917">
        <ele>149.2544</ele>
        <time>2011-02-17T08:22:58Z</time>
      </trkpt>
      <trkpt lat="45.17816" lon="0.89163">
        <ele>147.8281</ele>
        <time>2011-02-17T08:23:11Z</time>
      </trkpt>
      <trkpt lat="45.17795" lon="0.89161">
        <ele>145.9283</ele>
        <time>2011-02-17T08:23:31Z</time>
      </trkpt>
      <trkpt lat="45.17771" lon="0.89163">
        <ele>144.2459</ele>
        <time>2011-02-17T08:23:52Z</time>
      </trkpt>
      <trkpt lat="45.17754" lon="0.89163">
        <ele>142.6419</ele>
        <time>2011-02-17T08:24:09Z</time>
      </trkpt>
      <trkpt lat="45.17735" lon="0.89161">
        <ele>140.4208</ele>
        <time>2011-02-17T08:24:29Z</time>
      </trkpt>
      <trkpt lat="45.17718" lon="0.89161">
        <ele>138.807</ele>
        <time>2011-02-17T08:24:45Z</time>
      </trkpt>
      <trkpt lat="45.17694" lon="0.89159">
        <ele>136.4765</ele>
        <time>2011-02-17T08:25:08Z</time>
      </trkpt>
      <trkpt lat="45.1767" lon="0.89154">
        <ele>136.1</ele>
      </trkpt>
      <trkpt lat="45.1767" lon="0.89142">
        <ele>134.6</ele>
      </trkpt>
      <trkpt lat="45.17643" lon="0.89139">
        <ele>130.7</ele>
      </trkpt>
      <trkpt lat="45.17625" lon="0.8913">
        <ele>129.4</ele>
      </trkpt>
      <trkpt lat="45.17607" lon="0.89121">
        <ele>128.3</ele>
      </trkpt>
      <trkpt lat="45.17586" lon="0.89108">
        <ele>122.4152</ele>
        <time>2011-02-17T08:27:17Z</time>
      </trkpt>
      <trkpt lat="45.17566" lon="0.89095">
        <ele>120.4278</ele>
        <time>2011-02-17T08:27:37Z</time>
      </trkpt>
      <trkpt lat="45.17544" lon="0.89084">
        <ele>119.2177</ele>
        <time>2011-02-17T08:27:57Z</time>
      </trkpt>
      <trkpt lat="45.17527" lon="0.8907">
        <ele>118.4709</ele>
        <time>2011-02-17T08:28:16Z</time>
      </trkpt>
      <trkpt lat="45.17509" lon="0.89054">
        <ele>118.322</ele>
        <time>2011-02-17T08:28:35Z</time>
      </trkpt>
      <trkpt lat="45.17492" lon="0.89038">
        <ele>118.6231</ele>
        <time>2011-02-17T08:28:56Z</time>
      </trkpt>
      <trkpt lat="45.17478" lon="0.89017">
        <ele>123.6</ele>
      </trkpt>
      <trkpt lat="45.17476" lon="0.88991">
        <ele>119.6641</ele>
        <time>2011-02-17T08:29:34Z</time>
      </trkpt>
      <trkpt lat="45.17476" lon="0.88967">
        <ele>119.6301</ele>
        <time>2011-02-17T08:29:50Z</time>
      </trkpt>
      <trkpt lat="45.17483" lon="0.88937">
        <ele>118.9559</ele>
        <time>2011-02-17T08:30:10Z</time>
      </trkpt>
      <trkpt lat="45.17489" lon="0.8891">
        <ele>119.0791</ele>
        <time>2011-02-17T08:30:30Z</time>
      </trkpt>
      <trkpt lat="45.17498" lon="0.88886">
        <ele>120.1842</ele>
        <time>2011-02-17T08:30:51Z</time>
      </trkpt>
      <trkpt lat="45.1751" lon="0.88858">
        <ele>120.5109</ele>
        <time>2011-02-17T08:31:13Z</time>
      </trkpt>
      <trkpt lat="45.17509" lon="0.88843">
        <ele>125</ele>
      </trkpt>
      <trkpt lat="45.17503" lon="0.88831">
        <ele>122.1353</ele>
        <time>2011-02-17T08:31:38Z</time>
      </trkpt>
      <trkpt lat="45.17488" lon="0.88807">
        <ele>124.5227</ele>
        <time>2011-02-17T08:32:08Z</time>
      </trkpt>
      <trkpt lat="45.17475" lon="0.88781">
        <ele>132.3</ele>
      </trkpt>
      <trkpt lat="45.17468" lon="0.88755">
        <ele>125.7006</ele>
        <time>2011-02-17T08:32:51Z</time>
      </trkpt>
      <trkpt lat="45.17461" lon="0.88729">
        <ele>125.3958</ele>
        <time>2011-02-17T08:33:09Z</time>
      </trkpt>
      <trkpt lat="45.1745" lon="0.88706">
        <ele>126.2744</ele>
        <time>2011-02-17T08:33:30Z</time>
      </trkpt>
      <trkpt lat="45.17446" lon="0.88678">
        <ele>125.8619</ele>
        <time>2011-02-17T08:33:48Z</time>
      </trkpt>
      <trkpt lat="45.17441" lon="0.88644">
        <ele>127.4607</ele>
        <time>2011-02-17T08:34:16Z</time>
      </trkpt>
      <trkpt lat="45.17405" lon="0.88435">
        <ele>145.2</ele>
      </trkpt>
      <trkpt lat="45.17526" lon="0.88227">
        <ele>155.6</ele>
      </trkpt>
      <trkpt lat="45.17541" lon="0.88111">
        <ele>157.9</ele>
      </trkpt>
      <trkpt lat="45.17612" lon="0.88051">
        <ele>159.7</ele>
      </trkpt>
      <trkpt lat="45.17671" lon="0.87958">
        <ele>166.4</ele>
      </trkpt>
      <trkpt lat="45.17597" lon="0.87847">
        <ele>173.8</ele>
      </trkpt>
      <trkpt lat="45.17522" lon="0.87679">
        <ele>181</ele>
      </trkpt>
      <trkpt lat="45.17489" lon="0.87461">
        <ele>190.7</ele>
      </trkpt>
      <trkpt lat="45.17478" lon="0.87411">
        <ele>191.4</ele>
      </trkpt>
      <trkpt lat="45.17602" lon="0.87338">
        <ele>200.6</ele>
      </trkpt>
      <trkpt lat="45.17547" lon="0.87209">
        <ele>196.9</ele>
      </trkpt>
      <trkpt lat="45.17348" lon="0.87111">
        <ele>196</ele>
      </trkpt>
      <trkpt lat="45.17021" lon="0.8716">
        <ele>215.1</ele>
      </trkpt>
      <trkpt lat="45.16927" lon="0.87413">
        <ele>208.9</ele>
      </trkpt>
      <trkpt lat="45.16915" lon="0.87443">
        <ele>209.1</ele>
      </trkpt>
      <trkpt lat="45.16898" lon="0.87456">
        <ele>207.6086</ele>
        <time>2011-02-17T09:21:49Z</time>
      </trkpt>
      <trkpt lat="45.16886" lon="0.87467">
        <ele>207.6412</ele>
        <time>2011-02-17T09:22:04Z</time>
      </trkpt>
      <trkpt lat="45.16883" lon="0.87483">
        <ele>207.9669</ele>
        <time>2011-02-17T09:22:15Z</time>
      </trkpt>
      <trkpt lat="45.1687" lon="0.87541">
        <ele>210.074</ele>
        <time>2011-02-17T09:23:02Z</time>
      </trkpt>
      <trkpt lat="45.16861" lon="0.87571">
        <ele>212.4</ele>
      </trkpt>
      <trkpt lat="45.16845" lon="0.87589">
        <ele>214</ele>
      </trkpt>
      <trkpt lat="45.16823" lon="0.87605">
        <ele>216.7</ele>
      </trkpt>
      <trkpt lat="45.16804" lon="0.8761">
        <ele>217.2</ele>
      </trkpt>
      <trkpt lat="45.16786" lon="0.87613">
        <ele>217.7</ele>
      </trkpt>
      <trkpt lat="45.16765" lon="0.87623">
        <ele>213.6106</ele>
        <time>2011-02-17T09:25:14Z</time>
      </trkpt>
      <trkpt lat="45.16748" lon="0.87627">
        <ele>214.0243</ele>
        <time>2011-02-17T09:25:32Z</time>
      </trkpt>
      <trkpt lat="45.16726" lon="0.87633">
        <ele>214.3119</ele>
        <time>2011-02-17T09:25:54Z</time>
      </trkpt>
      <trkpt lat="45.16705" lon="0.87623">
        <ele>213.772</ele>
        <time>2011-02-17T09:26:14Z</time>
      </trkpt>
      <trkpt lat="45.16696" lon="0.87617">
        <ele>213.7523</ele>
        <time>2011-02-17T09:26:24Z</time>
      </trkpt>
      <trkpt lat="45.16677" lon="0.87598">
        <ele>214.3288</ele>
        <time>2011-02-17T09:26:47Z</time>
      </trkpt>
      <trkpt lat="45.16661" lon="0.87587">
        <ele>214.448</ele>
        <time>2011-02-17T09:27:04Z</time>
      </trkpt>
      <trkpt lat="45.16648" lon="0.87571">
        <ele>214.3302</ele>
        <time>2011-02-17T09:27:20Z</time>
      </trkpt>
      <trkpt lat="45.16628" lon="0.87551">
        <ele>214.2743</ele>
        <time>2011-02-17T09:27:44Z</time>
      </trkpt>
      <trkpt lat="45.16609" lon="0.87539">
        <ele>214.5154</ele>
        <time>2011-02-17T09:28:04Z</time>
      </trkpt>
      <trkpt lat="45.16588" lon="0.87531">
        <ele>214.2285</ele>
        <time>2011-02-17T09:28:24Z</time>
      </trkpt>
      <trkpt lat="45.16565" lon="0.87523">
        <ele>216.9</ele>
      </trkpt>
      <trkpt lat="45.16544" lon="0.87517">
        <ele>213.288</ele>
        <time>2011-02-17T09:29:05Z</time>
      </trkpt>
      <trkpt lat="45.16528" lon="0.87506">
        <ele>216.8</ele>
      </trkpt>
      <trkpt lat="45.16505" lon="0.87485">
        <ele>214.6</ele>
      </trkpt>
      <trkpt lat="45.16488" lon="0.87473">
        <ele>215.7</ele>
      </trkpt>
      <trkpt lat="45.16465" lon="0.87463">
        <ele>215.9</ele>
      </trkpt>
      <trkpt lat="45.16442" lon="0.87457">
        <ele>216.5</ele>
      </trkpt>
      <trkpt lat="45.16424" lon="0.87451">
        <ele>215.6735</ele>
        <time>2011-02-17T09:31:17Z</time>
      </trkpt>
      <trkpt lat="45.16405" lon="0.87423">
        <ele>218.8</ele>
      </trkpt>
      <trkpt lat="45.1639" lon="0.87394">
        <ele>218.3</ele>
      </trkpt>
      <trkpt lat="45.16346" lon="0.87468">
        <ele>220.6</ele>
      </trkpt>
      <trkpt lat="45.16273" lon="0.87458">
        <ele>217.7</ele>
      </trkpt>
      <trkpt lat="45.16221" lon="0.87522">
        <ele>216.7</ele>
      </trkpt>
      <trkpt lat="45.16186" lon="0.87492">
        <ele>214.4</ele>
      </trkpt>
      <trkpt lat="45.16148" lon="0.87216">
        <ele>196.6</ele>
      </trkpt>
      <trkpt lat="45.16102" lon="0.87118">
        <ele>182.4</ele>
      </trkpt>
      <trkpt lat="45.16036" lon="0.87049">
        <ele>166</ele>
      </trkpt>
      <trkpt lat="45.15974" lon="0.87246">
        <ele>168.2</ele>
      </trkpt>
      <trkpt lat="45.1596" lon="0.87279">
        <ele>166.7</ele>
      </trkpt>
      <trkpt lat="45.1596" lon="0.87279">
        <ele>166.7</ele>
      </trkpt>
      <trkpt lat="45.1596" lon="0.87279">
        <ele>166.7</ele>
      </trkpt>
      <trkpt lat="45.1596" lon="0.87279">
        <ele>166.7</ele>
      </trkpt>
      <trkpt lat="45.1596" lon="0.87279">
        <ele>166.7</ele>
      </trkpt>
      <trkpt lat="45.1596" lon="0.87279">
        <ele>166.7</ele>
      </trkpt>
      <trkpt lat="45.15879" lon="0.8723">
        <ele>159.5</ele>
      </trkpt>
      <trkpt lat="45.15897" lon="0.87165">
        <ele>161.2</ele>
      </trkpt>
      <trkpt lat="45.15913" lon="0.8713">
        <ele>162.6</ele>
      </trkpt>
      <trkpt lat="45.15926" lon="0.87103">
        <ele>161.5</ele>
      </trkpt>
      <trkpt lat="45.15953" lon="0.87081">
        <ele>161.8</ele>
      </trkpt>
      <trkpt lat="45.15964" lon="0.87043">
        <ele>161.9</ele>
      </trkpt>
      <trkpt lat="45.15999" lon="0.86954">
        <ele>159.7</ele>
      </trkpt>
      <trkpt lat="45.1599" lon="0.86895">
        <ele>159.5</ele>
      </trkpt>
      <trkpt lat="45.15978" lon="0.86869">
        <ele>161.7</ele>
      </trkpt>
      <trkpt lat="45.15969" lon="0.86853">
        <ele>162.5</ele>
      </trkpt>
      <trkpt lat="45.16001" lon="0.86752">
        <ele>159.7</ele>
      </trkpt>
      <trkpt lat="45.16051" lon="0.86651">
        <ele>158.7</ele>
      </trkpt>
      <trkpt lat="45.16092" lon="0.86591">
        <ele>158.7</ele>
      </trkpt>
      <trkpt lat="45.16117" lon="0.86546">
        <ele>162.2</ele>
      </trkpt>
      <trkpt lat="45.16127" lon="0.86483">
        <ele>167.5</ele>
      </trkpt>
      <trkpt lat="45.16134" lon="0.86424">
        <ele>167.9</ele>
      </trkpt>
      <trkpt lat="45.16149" lon="0.86372">
        <ele>170.6</ele>
      </trkpt>
      <trkpt lat="45.16154" lon="0.86333">
        <ele>171.5</ele>
      </trkpt>
      <trkpt lat="45.16159" lon="0.86267">
        <ele>172.2</ele>
      </trkpt>
      <trkpt lat="45.16146" lon="0.86211">
        <ele>173</ele>
      </trkpt>
      <trkpt lat="45.16146" lon="0.86107">
        <ele>173.5</ele>
      </trkpt>
      <trkpt lat="45.16149" lon="0.86047">
        <ele>171.5</ele>
      </trkpt>
      <trkpt lat="45.16131" lon="0.8597">
        <ele>168.5</ele>
      </trkpt>
      <trkpt lat="45.16126" lon="0.85947">
        <ele>168.2</ele>
      </trkpt>
      <trkpt lat="45.1612" lon="0.85925">
        <ele>167.9</ele>
      </trkpt>
      <trkpt lat="45.16107" lon="0.85858">
        <ele>165.4</ele>
      </trkpt>
      <trkpt lat="45.16097" lon="0.85783">
        <ele>159.1</ele>
      </trkpt>
      <trkpt lat="45.16136" lon="0.85702">
        <ele>154.5</ele>
      </trkpt>
      <trkpt lat="45.16162" lon="0.8562">
        <ele>149.6</ele>
      </trkpt>
      <trkpt lat="45.16203" lon="0.85503">
        <ele>142.4</ele>
      </trkpt>
      <trkpt lat="45.16189" lon="0.85324">
        <ele>144</ele>
      </trkpt>
      <trkpt lat="45.16164" lon="0.85259">
        <ele>149.6</ele>
      </trkpt>
      <trkpt lat="45.16111" lon="0.85136">
        <ele>157.8</ele>
      </trkpt>
      <trkpt lat="45.16077" lon="0.85002">
        <ele>153</ele>
      </trkpt>
      <trkpt lat="45.16015" lon="0.84791">
        <ele>140.9</ele>
      </trkpt>
      <trkpt lat="45.16024" lon="0.84739">
        <ele>140.1</ele>
      </trkpt>
      <trkpt lat="45.16024" lon="0.84696">
        <ele>141.5</ele>
      </trkpt>
      <trkpt lat="45.15983" lon="0.84648">
        <ele>145</ele>
      </trkpt>
      <trkpt lat="45.15978" lon="0.84599">
        <ele>146.7</ele>
      </trkpt>
      <trkpt lat="45.15964" lon="0.84583">
        <ele>148.4</ele>
      </trkpt>
      <trkpt lat="45.15919" lon="0.84495">
        <ele>150.1</ele>
      </trkpt>
      <trkpt lat="45.15869" lon="0.84391">
        <ele>155.7</ele>
      </trkpt>
      <trkpt lat="45.15774" lon="0.84271">
        <ele>160.7</ele>
      </trkpt>
      <trkpt lat="45.15687" lon="0.84144">
        <ele>163.5</ele>
      </trkpt>
      <trkpt lat="45.15667" lon="0.84034">
        <ele>166.4</ele>
      </trkpt>
      <trkpt lat="45.15648" lon="0.83923">
        <ele>171.3</ele>
      </trkpt>
      <trkpt lat="45.15616" lon="0.83819">
        <ele>181.1</ele>
      </trkpt>
      <trkpt lat="45.1552" lon="0.83764">
        <ele>193.5</ele>
      </trkpt>
      <trkpt lat="45.15488" lon="0.83695">
        <ele>205.2</ele>
      </trkpt>
      <trkpt lat="45.15459" lon="0.83683">
        <ele>209</ele>
      </trkpt>
      <trkpt lat="45.1542" lon="0.83677">
        <ele>212.5</ele>
      </trkpt>
      <trkpt lat="45.15418" lon="0.83656">
        <ele>215</ele>
      </trkpt>
      <trkpt lat="45.15427" lon="0.83611">
        <ele>219.1</ele>
      </trkpt>
      <trkpt lat="45.15406" lon="0.83575">
        <ele>224.3</ele>
      </trkpt>
      <trkpt lat="45.15398" lon="0.83588">
        <ele>221.8</ele>
      </trkpt>
      <trkpt lat="45.15389" lon="0.83595">
        <ele>221.5</ele>
      </trkpt>
      <trkpt lat="45.15362" lon="0.83603">
        <ele>221.7</ele>
      </trkpt>
      <trkpt lat="45.15342" lon="0.83608">
        <ele>222.1</ele>
      </trkpt>
      <trkpt lat="45.15317" lon="0.83616">
        <ele>226.6</ele>
      </trkpt>
      <trkpt lat="45.15259" lon="0.83625">
        <ele>231.9</ele>
      </trkpt>
      <trkpt lat="45.15211" lon="0.83612">
        <ele>234.4</ele>
      </trkpt>
      <trkpt lat="45.15172" lon="0.83553">
        <ele>233.9</ele>
      </trkpt>
      <trkpt lat="45.15176" lon="0.8349">
        <ele>231.8</ele>
      </trkpt>
      <trkpt lat="45.15156" lon="0.83386">
        <ele>225</ele>
      </trkpt>
      <trkpt lat="45.15111" lon="0.83303">
        <ele>220.1</ele>
      </trkpt>
      <trkpt lat="45.15089" lon="0.83147">
        <ele>218.1</ele>
      </trkpt>
      <trkpt lat="45.15087" lon="0.82961">
        <ele>209.8</ele>
      </trkpt>
      <trkpt lat="45.14992" lon="0.82965">
        <ele>213.1</ele>
      </trkpt>
      <trkpt lat="45.14907" lon="0.82919">
        <ele>210.1</ele>
      </trkpt>
      <trkpt lat="45.14879" lon="0.82913">
        <ele>207.2</ele>
      </trkpt>
      <trkpt lat="45.14797" lon="0.82876">
        <ele>204.3</ele>
      </trkpt>
      <trkpt lat="45.14699" lon="0.82829">
        <ele>197.6</ele>
      </trkpt>
      <trkpt lat="45.14681" lon="0.82818">
        <ele>197.9</ele>
      </trkpt>
      <trkpt lat="45.14647" lon="0.82803">
        <ele>199</ele>
      </trkpt>
      <trkpt lat="45.14564" lon="0.82791">
        <ele>199.1</ele>
      </trkpt>
      <trkpt lat="45.14514" lon="0.82785">
        <ele>198.1</ele>
      </trkpt>
      <trkpt lat="45.14481" lon="0.82774">
        <ele>196.5</ele>
      </trkpt>
      <trkpt lat="45.1443" lon="0.82768">
        <ele>192.6</ele>
      </trkpt>
      <trkpt lat="45.14405" lon="0.82809">
        <ele>185.5</ele>
      </trkpt>
      <trkpt lat="45.14384" lon="0.82873">
        <ele>178.7</ele>
      </trkpt>
      <trkpt lat="45.14345" lon="0.82895">
        <ele>174.3</ele>
      </trkpt>
      <trkpt lat="45.14307" lon="0.82931">
        <ele>165.6</ele>
      </trkpt>
      <trkpt lat="45.14242" lon="0.83076">
        <ele>159.5</ele>
      </trkpt>
      <trkpt lat="45.14209" lon="0.83234">
        <ele>151.9</ele>
      </trkpt>
      <trkpt lat="45.14196" lon="0.83258">
        <ele>151.3</ele>
      </trkpt>
      <trkpt lat="45.14085" lon="0.83237">
        <ele>150.7</ele>
      </trkpt>
      <trkpt lat="45.14029" lon="0.83262">
        <ele>149.2</ele>
      </trkpt>
      <trkpt lat="45.14003" lon="0.83271">
        <ele>149.2</ele>
      </trkpt>
      <trkpt lat="45.1398" lon="0.83294">
        <ele>144.6</ele>
      </trkpt>
      <trkpt lat="45.13971" lon="0.83305">
        <ele>144.1</ele>
      </trkpt>
      <trkpt lat="45.13947" lon="0.83329">
        <ele>142.7</ele>
      </trkpt>
      <trkpt lat="45.13926" lon="0.83249">
        <ele>142.1</ele>
      </trkpt>
      <trkpt lat="45.13913" lon="0.83243">
        <ele>140.6</ele>
      </trkpt>
      <trkpt lat="45.139" lon="0.83243">
        <ele>141.2</ele>
      </trkpt>
      <trkpt lat="45.13898" lon="0.83249">
        <ele>141.3</ele>
      </trkpt>
      <trkpt lat="45.13896" lon="0.83267">
        <ele>143.3</ele>
      </trkpt>
      <trkpt lat="45.13915" lon="0.83344">
        <ele>144.2</ele>
      </trkpt>
      <trkpt lat="45.13959" lon="0.83424">
        <ele>149.5</ele>
      </trkpt>
      <trkpt lat="45.13988" lon="0.83555">
        <ele>151.1</ele>
      </trkpt>
      <trkpt lat="45.14038" lon="0.83712">
        <ele>155</ele>
      </trkpt>
      <trkpt lat="45.14043" lon="0.83783">
        <ele>156.8</ele>
      </trkpt>
      <trkpt lat="45.14048" lon="0.83854">
        <ele>158.6</ele>
      </trkpt>
      <trkpt lat="45.14085" lon="0.83889">
        <ele>155.1</ele>
      </trkpt>
      <trkpt lat="45.14111" lon="0.83891">
        <ele>154.8</ele>
      </trkpt>
      <trkpt lat="45.14123" lon="0.83895">
        <ele>154.7</ele>
      </trkpt>
      <trkpt lat="45.14147" lon="0.839">
        <ele>154.4</ele>
      </trkpt>
      <trkpt lat="45.14183" lon="0.83921">
        <ele>156.4</ele>
      </trkpt>
      <trkpt lat="45.14179" lon="0.84235">
        <ele>173.6</ele>
      </trkpt>
      <trkpt lat="45.14262" lon="0.84347">
        <ele>176.1</ele>
      </trkpt>
      <trkpt lat="45.14365" lon="0.84415">
        <ele>168.6</ele>
      </trkpt>
      <trkpt lat="45.14387" lon="0.84422">
        <ele>168.9</ele>
      </trkpt>
      <trkpt lat="45.14399" lon="0.84437">
        <ele>168.5</ele>
      </trkpt>
      <trkpt lat="45.14435" lon="0.84491">
        <ele>169.3</ele>
      </trkpt>
      <trkpt lat="45.14374" lon="0.84601">
        <ele>177.9</ele>
      </trkpt>
      <trkpt lat="45.14332" lon="0.84633">
        <ele>178.8</ele>
      </trkpt>
      <trkpt lat="45.14308" lon="0.8473">
        <ele>179</ele>
      </trkpt>
      <trkpt lat="45.14304" lon="0.8476">
        <ele>179.7</ele>
      </trkpt>
      <trkpt lat="45.14306" lon="0.84818">
        <ele>181</ele>
      </trkpt>
      <trkpt lat="45.14323" lon="0.84831">
        <ele>180.9</ele>
      </trkpt>
      <trkpt lat="45.14347" lon="0.84891">
        <ele>184.4</ele>
      </trkpt>
      <trkpt lat="45.14379" lon="0.84966">
        <ele>186.5</ele>
      </trkpt>
      <trkpt lat="45.14413" lon="0.85045">
        <ele>186.3</ele>
      </trkpt>
      <trkpt lat="45.14427" lon="0.85092">
        <ele>186.9</ele>
      </trkpt>
      <trkpt lat="45.14448" lon="0.85178">
        <ele>187.8</ele>
      </trkpt>
      <trkpt lat="45.14497" lon="0.85314">
        <ele>191</ele>
      </trkpt>
      <trkpt lat="45.14523" lon="0.85362">
        <ele>195.6</ele>
      </trkpt>
      <trkpt lat="45.14545" lon="0.8543">
        <ele>200.4</ele>
      </trkpt>
      <trkpt lat="45.14544" lon="0.85469">
        <ele>201.7</ele>
      </trkpt>
      <trkpt lat="45.14533" lon="0.8552">
        <ele>206.2</ele>
      </trkpt>
      <trkpt lat="45.14531" lon="0.85575">
        <ele>208</ele>
      </trkpt>
      <trkpt lat="45.14533" lon="0.85587">
        <ele>211</ele>
      </trkpt>
      <trkpt lat="45.14519" lon="0.85635">
        <ele>212.7</ele>
      </trkpt>
      <trkpt lat="45.14484" lon="0.85705">
        <ele>215.7</ele>
      </trkpt>
      <trkpt lat="45.1447" lon="0.85726">
        <ele>215.3</ele>
      </trkpt>
      <trkpt lat="45.14456" lon="0.85763">
        <ele>211.6</ele>
      </trkpt>
      <trkpt lat="45.14454" lon="0.85818">
        <ele>209.4</ele>
      </trkpt>
      <trkpt lat="45.14473" lon="0.85895">
        <ele>203.2</ele>
      </trkpt>
      <trkpt lat="45.14498" lon="0.85999">
        <ele>197.7</ele>
      </trkpt>
      <trkpt lat="45.14514" lon="0.86067">
        <ele>196.8</ele>
      </trkpt>
      <trkpt lat="45.14533" lon="0.86125">
        <ele>194.7</ele>
      </trkpt>
      <trkpt lat="45.14538" lon="0.86133">
        <ele>194.8</ele>
      </trkpt>
      <trkpt lat="45.14561" lon="0.86211">
        <ele>192.5</ele>
      </trkpt>
      <trkpt lat="45.146" lon="0.86335">
        <ele>191.1</ele>
      </trkpt>
      <trkpt lat="45.14634" lon="0.86446">
        <ele>190.1</ele>
      </trkpt>
      <trkpt lat="45.14652" lon="0.86506">
        <ele>188.2</ele>
      </trkpt>
      <trkpt lat="45.14661" lon="0.86575">
        <ele>186.1</ele>
      </trkpt>
      <trkpt lat="45.14656" lon="0.86661">
        <ele>189.5</ele>
      </trkpt>
      <trkpt lat="45.1465" lon="0.86681">
        <ele>192.3</ele>
      </trkpt>
      <trkpt lat="45.14587" lon="0.8679">
        <ele>201</ele>
      </trkpt>
      <trkpt lat="45.14645" lon="0.86872">
        <ele>202</ele>
      </trkpt>
      <trkpt lat="45.14655" lon="0.86966">
        <ele>201.2</ele>
      </trkpt>
      <trkpt lat="45.14706" lon="0.86969">
        <ele>198.8</ele>
      </trkpt>
      <trkpt lat="45.14721" lon="0.86998">
        <ele>198.8</ele>
      </trkpt>
      <trkpt lat="45.14736" lon="0.87004">
        <ele>200.7</ele>
      </trkpt>
      <trkpt lat="45.14797" lon="0.86994">
        <ele>202.4</ele>
      </trkpt>
      <trkpt lat="45.14849" lon="0.86972">
        <ele>211.2</ele>
      </trkpt>
      <trkpt lat="45.1488" lon="0.86933">
        <ele>212.6</ele>
      </trkpt>
      <trkpt lat="45.14888" lon="0.86868">
        <ele>209.5</ele>
      </trkpt>
      <trkpt lat="45.1489" lon="0.86845">
        <ele>209.9</ele>
      </trkpt>
      <trkpt lat="45.14918" lon="0.86817">
        <ele>215.4</ele>
      </trkpt>
      <trkpt lat="45.14941" lon="0.86805">
        <ele>215.6</ele>
      </trkpt>
      <trkpt lat="45.14947" lon="0.86803">
        <ele>215.6</ele>
      </trkpt>
      <trkpt lat="45.14955" lon="0.86801">
        <ele>215.7</ele>
      </trkpt>
      <trkpt lat="45.14958" lon="0.86822">
        <ele>216</ele>
      </trkpt>
      <trkpt lat="45.14959" lon="0.8684">
        <ele>218.7</ele>
      </trkpt>
      <trkpt lat="45.14959" lon="0.86854">
        <ele>218.9</ele>
      </trkpt>
      <trkpt lat="45.14966" lon="0.86866">
        <ele>219.5</ele>
      </trkpt>
      <trkpt lat="45.14988" lon="0.86887">
        <ele>221.1</ele>
      </trkpt>
      <trkpt lat="45.15004" lon="0.86903">
        <ele>223.5</ele>
      </trkpt>
      <trkpt lat="45.15038" lon="0.86927">
        <ele>225.3</ele>
      </trkpt>
      <trkpt lat="45.15068" lon="0.86935">
        <ele>224.2</ele>
      </trkpt>
      <trkpt lat="45.15123" lon="0.86941">
        <ele>220</ele>
      </trkpt>
      <trkpt lat="45.15158" lon="0.86943">
        <ele>218.8</ele>
      </trkpt>
      <trkpt lat="45.15181" lon="0.86934">
        <ele>216.6</ele>
      </trkpt>
      <trkpt lat="45.15241" lon="0.86889">
        <ele>216</ele>
      </trkpt>
      <trkpt lat="45.15271" lon="0.86863">
        <ele>217.6</ele>
      </trkpt>
      <trkpt lat="45.15282" lon="0.86852">
        <ele>217.7</ele>
      </trkpt>
      <trkpt lat="45.15329" lon="0.86807">
        <ele>218.7</ele>
      </trkpt>
      <trkpt lat="45.15389" lon="0.86749">
        <ele>219.1</ele>
      </trkpt>
      <trkpt lat="45.15445" lon="0.86689">
        <ele>218.3</ele>
      </trkpt>
      <trkpt lat="45.1549" lon="0.86629">
        <ele>217.5</ele>
      </trkpt>
      <trkpt lat="45.15505" lon="0.86597">
        <ele>219.3</ele>
      </trkpt>
      <trkpt lat="45.15512" lon="0.86586">
        <ele>219.2</ele>
      </trkpt>
      <trkpt lat="45.15533" lon="0.86547">
        <ele>218.5</ele>
      </trkpt>
      <trkpt lat="45.156" lon="0.86466">
        <ele>214.3</ele>
      </trkpt>
      <trkpt lat="45.15621" lon="0.8644">
        <ele>213</ele>
      </trkpt>
      <trkpt lat="45.15647" lon="0.86417">
        <ele>210.6</ele>
      </trkpt>
      <trkpt lat="45.15668" lon="0.86397">
        <ele>206.7</ele>
      </trkpt>
      <trkpt lat="45.15722" lon="0.86365">
        <ele>203.9</ele>
      </trkpt>
      <trkpt lat="45.15748" lon="0.86348">
        <ele>202.4</ele>
      </trkpt>
      <trkpt lat="45.15761" lon="0.86339">
        <ele>199.9</ele>
      </trkpt>
      <trkpt lat="45.15821" lon="0.86277">
        <ele>197.6</ele>
      </trkpt>
      <trkpt lat="45.15889" lon="0.86178">
        <ele>193</ele>
      </trkpt>
      <trkpt lat="45.15915" lon="0.86165">
        <ele>191.1</ele>
      </trkpt>
      <trkpt lat="45.15928" lon="0.86165">
        <ele>188.9</ele>
      </trkpt>
      <trkpt lat="45.15952" lon="0.86146">
        <ele>186.2</ele>
      </trkpt>
      <trkpt lat="45.16029" lon="0.86062">
        <ele>177.8</ele>
      </trkpt>
      <trkpt lat="45.16061" lon="0.86009">
        <ele>174.9</ele>
      </trkpt>
      <trkpt lat="45.16083" lon="0.85975">
        <ele>172.5</ele>
      </trkpt>
      <trkpt lat="45.16108" lon="0.85955">
        <ele>168.8</ele>
      </trkpt>
      <trkpt lat="45.16121" lon="0.85945">
        <ele>168.4</ele>
      </trkpt>
      <trkpt lat="45.16144" lon="0.86044">
        <ele>171.1</ele>
      </trkpt>
      <trkpt lat="45.16142" lon="0.86204">
        <ele>172.7</ele>
      </trkpt>
      <trkpt lat="45.16155" lon="0.86267">
        <ele>171.6</ele>
      </trkpt>
      <trkpt lat="45.16146" lon="0.86364">
        <ele>170</ele>
      </trkpt>
      <trkpt lat="45.16134" lon="0.86408">
        <ele>169.1</ele>
      </trkpt>
      <trkpt lat="45.16116" lon="0.86541">
        <ele>163.5</ele>
      </trkpt>
      <trkpt lat="45.1606" lon="0.8663">
        <ele>157.9</ele>
      </trkpt>
      <trkpt lat="45.16003" lon="0.86734">
        <ele>160.2</ele>
      </trkpt>
      <trkpt lat="45.1597" lon="0.86837">
        <ele>162.6</ele>
      </trkpt>
      <trkpt lat="45.15967" lon="0.86859">
        <ele>162.5</ele>
      </trkpt>
      <trkpt lat="45.15988" lon="0.86899">
        <ele>156.7</ele>
      </trkpt>
      <trkpt lat="45.15996" lon="0.86953">
        <ele>156.8</ele>
      </trkpt>
      <trkpt lat="45.15952" lon="0.87075">
        <ele>161.6</ele>
      </trkpt>
      <trkpt lat="45.15923" lon="0.87098">
        <ele>160.5</ele>
      </trkpt>
      <trkpt lat="45.15895" lon="0.87159">
        <ele>159.8</ele>
      </trkpt>
      <trkpt lat="45.15877" lon="0.87224">
        <ele>159.3</ele>
      </trkpt>
      <trkpt lat="45.15877" lon="0.87234">
        <ele>158.9</ele>
      </trkpt>
      <trkpt lat="45.15957" lon="0.87282">
        <ele>166</ele>
      </trkpt>
      <trkpt lat="45.15965" lon="0.87305">
        <ele>168.8</ele>
      </trkpt>
      <trkpt lat="45.15967" lon="0.8733">
        <ele>170.4</ele>
      </trkpt>
      <trkpt lat="45.1597" lon="0.87351">
        <ele>172.9</ele>
      </trkpt>
      <trkpt lat="45.15969" lon="0.87369">
        <ele>174.1</ele>
      </trkpt>
      <trkpt lat="45.15908" lon="0.87527">
        <ele>173.6</ele>
      </trkpt>
      <trkpt lat="45.15887" lon="0.87655">
        <ele>177.7</ele>
      </trkpt>
      <trkpt lat="45.15908" lon="0.87798">
        <ele>185.6</ele>
      </trkpt>
      <trkpt lat="45.15988" lon="0.87828">
        <ele>201.9</ele>
      </trkpt>
      <trkpt lat="45.16019" lon="0.87897">
        <ele>209.5</ele>
      </trkpt>
      <trkpt lat="45.16022" lon="0.87995">
        <ele>214.9</ele>
      </trkpt>
      <trkpt lat="45.16154" lon="0.88136">
        <ele>221.8384</ele>
        <time>2011-02-17T09:41:21Z</time>
      </trkpt>
      <trkpt lat="45.16156" lon="0.88138">
        <ele>221.7929</ele>
        <time>2011-02-17T09:41:23Z</time>
      </trkpt>
      <trkpt lat="45.16158" lon="0.88144">
        <ele>221.6751</ele>
        <time>2011-02-17T09:41:28Z</time>
      </trkpt>
      <trkpt lat="45.16185" lon="0.88236">
        <ele>219</ele>
      </trkpt>
      <trkpt lat="45.16197" lon="0.88305">
        <ele>218.5</ele>
      </trkpt>
      <trkpt lat="45.1621" lon="0.88334">
        <ele>219.7</ele>
      </trkpt>
      <trkpt lat="45.16253" lon="0.8839">
        <ele>219.2</ele>
      </trkpt>
      <trkpt lat="45.16317" lon="0.88439">
        <ele>221.4</ele>
      </trkpt>
      <trkpt lat="45.16369" lon="0.88467">
        <ele>219.6</ele>
      </trkpt>
      <trkpt lat="45.16391" lon="0.88509">
        <ele>219.6</ele>
      </trkpt>
      <trkpt lat="45.16304" lon="0.88615">
        <ele>219</ele>
      </trkpt>
      <trkpt lat="45.16265" lon="0.88735">
        <ele>214.7</ele>
      </trkpt>
      <trkpt lat="45.16213" lon="0.88781">
        <ele>213.6</ele>
      </trkpt>
      <trkpt lat="45.16229" lon="0.88868">
        <ele>211.6</ele>
      </trkpt>
      <trkpt lat="45.16284" lon="0.88942">
        <ele>207.7</ele>
      </trkpt>
      <trkpt lat="45.16346" lon="0.89029">
        <ele>200.5</ele>
      </trkpt>
      <trkpt lat="45.16398" lon="0.89126">
        <ele>190.7</ele>
      </trkpt>
      <trkpt lat="45.16489" lon="0.89208">
        <ele>183.3</ele>
      </trkpt>
      <trkpt lat="45.16615" lon="0.89195">
        <ele>182.7</ele>
      </trkpt>
      <trkpt lat="45.16674" lon="0.89231">
        <ele>177.3</ele>
      </trkpt>
      <trkpt lat="45.16719" lon="0.89282">
        <ele>173.4</ele>
      </trkpt>
      <trkpt lat="45.16829" lon="0.89507">
        <ele>180.9</ele>
      </trkpt>
      <trkpt lat="45.16949" lon="0.89572">
        <ele>170.3</ele>
      </trkpt>
      <trkpt lat="45.17047" lon="0.89586">
        <ele>154</ele>
      </trkpt>
      <trkpt lat="45.172" lon="0.89595">
        <ele>132.4836</ele>
        <time>2011-02-17T10:13:12Z</time>
      </trkpt>
      <trkpt lat="45.17235" lon="0.89622">
        <ele>128.3997</ele>
        <time>2011-02-17T10:13:50Z</time>
      </trkpt>
      <trkpt lat="45.17303" lon="0.8967">
        <ele>130.3779</ele>
        <time>2011-02-17T10:15:07Z</time>
      </trkpt>
      <trkpt lat="45.1727" lon="0.89771">
        <ele>128.7784</ele>
        <time>2011-02-17T10:16:19Z</time>
      </trkpt>
      <trkpt lat="45.17268" lon="0.89816">
        <ele>129.2066</ele>
        <time>2011-02-17T10:16:50Z</time>
      </trkpt>
      <trkpt lat="45.17301" lon="0.89949">
        <ele>131.4974</ele>
        <time>2011-02-17T10:18:31Z</time>
      </trkpt>
      <trkpt lat="45.17311" lon="0.89999">
        <ele>132.392</ele>
        <time>2011-02-17T10:19:07Z</time>
      </trkpt>
      <trkpt lat="45.17314" lon="0.90036">
        <ele>133.5981</ele>
        <time>2011-02-17T10:19:35Z</time>
      </trkpt>
      <trkpt lat="45.17302" lon="0.90089">
        <ele>133.0263</ele>
        <time>2011-02-17T10:20:12Z</time>
      </trkpt>
      <trkpt lat="45.17277" lon="0.90163">
        <ele>134.0209</ele>
        <time>2011-02-17T10:21:09Z</time>
      </trkpt>
      <trkpt lat="45.17268" lon="0.90208">
        <ele>133.9436</ele>
        <time>2011-02-17T10:21:40Z</time>
      </trkpt>
      <trkpt lat="45.1726" lon="0.90274">
        <ele>134.1451</ele>
        <time>2011-02-17T10:22:26Z</time>
      </trkpt>
      <trkpt lat="45.17261" lon="0.90328">
        <ele>134.1412</ele>
        <time>2011-02-17T10:23:02Z</time>
      </trkpt>
      <trkpt lat="45.17299" lon="0.90337">
        <ele>144.9462</ele>
        <time>2011-02-17T10:24:41Z</time>
      </trkpt>
      <trkpt lat="45.17366" lon="0.90358">
        <ele>164.0611</ele>
        <time>2011-02-17T10:27:36Z</time>
      </trkpt>
      <trkpt lat="45.17426" lon="0.90405">
        <ele>175.1698</ele>
        <time>2011-02-17T10:29:24Z</time>
      </trkpt>
      <trkpt lat="45.17465" lon="0.90447">
        <ele>180.3781</ele>
        <time>2011-02-17T10:30:28Z</time>
      </trkpt>
      <trkpt lat="45.17565" lon="0.90524">
        <ele>195.7849</ele>
        <time>2011-02-17T10:33:13Z</time>
      </trkpt>
      <trkpt lat="45.17656" lon="0.90566">
        <ele>204.7975</ele>
        <time>2011-02-17T10:35:13Z</time>
      </trkpt>
      <trkpt lat="45.17696" lon="0.90603">
        <ele>204.5951</ele>
        <time>2011-02-17T10:35:59Z</time>
      </trkpt>
      <trkpt lat="45.17757" lon="0.90617">
        <ele>207.8753</ele>
        <time>2011-02-17T10:37:06Z</time>
      </trkpt>
      <trkpt lat="45.17814" lon="0.90625">
        <ele>208.9997</ele>
        <time>2011-02-17T10:38:03Z</time>
      </trkpt>
      <trkpt lat="45.17861" lon="0.90646">
        <ele>207.822</ele>
        <time>2011-02-17T10:38:47Z</time>
      </trkpt>
      <trkpt lat="45.17924" lon="0.90628">
        <ele>208.5</ele>
      </trkpt>
    </trkseg>
  </trk>
</gpx>